createdAt,value
2022-12-06T00:01:21.623Z,101367.22
2022-12-06T00:03:53.314Z,101371.44
2022-12-06T00:06:22.583Z,101363.09
2022-12-06T00:08:50.049Z,101362.16
2022-12-06T00:11:25.351Z,101364.28
2022-12-06T00:13:54.401Z,101357.47
2022-12-06T00:16:21.554Z,101360.75
2022-12-06T00:18:49.275Z,101355.47
2022-12-06T00:21:30.449Z,101359.63
2022-12-06T00:24:09.176Z,101358.69
2022-12-06T00:26:37.466Z,101358.88
2022-12-06T00:29:05.328Z,101356.09
2022-12-06T00:31:32.583Z,101350.16
2022-12-06T00:33:59.269Z,101353.50
2022-12-06T00:36:28.833Z,101349.09
2022-12-06T00:38:56.097Z,101348.75
2022-12-06T00:41:24.668Z,101344.06
2022-12-06T00:43:52.668Z,101345.88
2022-12-06T00:46:22.941Z,101341.88
2022-12-06T00:48:50.747Z,101336.25
2022-12-06T00:51:19.196Z,101327.69
2022-12-06T00:53:46.277Z,101327.88
2022-12-06T00:56:13.747Z,101327.00
2022-12-06T00:58:40.613Z,101317.28
2022-12-06T01:01:18.741Z,101320.44
2022-12-06T01:03:45.801Z,101315.44
2022-12-06T01:06:15.874Z,101321.69
2022-12-06T01:08:43.320Z,101313.66
2022-12-06T01:11:11.311Z,101320.16
2022-12-06T01:13:38.050Z,101313.00
2022-12-06T01:16:09.759Z,101321.91
2022-12-06T01:18:36.987Z,101319.28
2022-12-06T01:21:08.637Z,101319.94
2022-12-06T01:23:36.263Z,101312.91
2022-12-06T01:26:04.280Z,101318.44
2022-12-06T01:28:31.285Z,101307.13
2022-12-06T01:30:58.106Z,101304.34
2022-12-06T01:33:25.180Z,101304.63
2022-12-06T01:35:52.108Z,101311.09
2022-12-06T01:38:18.793Z,101303.97
2022-12-06T01:40:48.581Z,101309.44
2022-12-06T01:43:40.622Z,101309.06
2022-12-06T01:46:20.444Z,101317.25
2022-12-06T01:48:55.749Z,101310.94
2022-12-06T01:51:23.234Z,101302.53
2022-12-06T01:53:53.516Z,101294.50
2022-12-06T01:56:21.552Z,101295.69
2022-12-06T01:58:51.090Z,101295.31
2022-12-06T02:01:18.173Z,101294.50
2022-12-06T02:03:46.076Z,101285.22
2022-12-06T02:06:12.842Z,101294.66
2022-12-06T02:08:39.641Z,101291.84
2022-12-06T02:11:06.479Z,101288.97
2022-12-06T02:13:36.031Z,101298.38
2022-12-06T02:16:30.544Z,101305.59
2022-12-06T02:19:37.676Z,101302.06
2022-12-06T02:22:11.269Z,101311.03
2022-12-06T02:25:22.546Z,101297.31
2022-12-06T02:28:02.981Z,101294.75
2022-12-06T02:30:58.575Z,101292.31
2022-12-06T02:33:40.113Z,101293.44
2022-12-06T02:36:09.792Z,101292.97
2022-12-06T02:38:43.805Z,101300.56
2022-12-06T02:41:16.943Z,101297.22
2022-12-06T02:43:54.784Z,101302.16
2022-12-06T02:46:23.433Z,101288.66
2022-12-06T02:48:53.278Z,101289.44
2022-12-06T02:51:21.268Z,101288.06
2022-12-06T02:53:52.957Z,101290.31
2022-12-06T02:56:20.183Z,101283.50
2022-12-06T02:58:47.709Z,101284.78
2022-12-06T03:01:33.634Z,101277.31
2022-12-06T03:04:06.479Z,101277.16
2022-12-06T03:06:35.960Z,101276.41
2022-12-06T03:09:05.403Z,101266.28
2022-12-06T03:11:48.723Z,101262.97
2022-12-06T03:14:22.519Z,101264.03
2022-12-06T03:17:09.503Z,101263.63
2022-12-06T03:19:40.109Z,101268.81
2022-12-06T03:22:13.400Z,101263.34
2022-12-06T03:24:43.125Z,101260.56
2022-12-06T03:27:15.678Z,101263.22
2022-12-06T03:29:47.734Z,101256.97
2022-12-06T03:32:16.874Z,101252.06
2022-12-06T03:34:47.494Z,101255.69
2022-12-06T03:37:18.991Z,101257.38
2022-12-06T03:40:02.101Z,101243.84
2022-12-06T03:42:30.599Z,101241.00
2022-12-06T03:44:58.828Z,101236.28
2022-12-06T03:47:34.083Z,101244.50
2022-12-06T03:50:16.944Z,101239.41
2022-12-06T03:52:43.901Z,101237.63
2022-12-06T03:55:10.715Z,101234.03
2022-12-06T03:57:37.402Z,101232.88
2022-12-06T04:00:06.127Z,101225.31
2022-12-06T04:02:38.171Z,101227.81
2022-12-06T04:05:05.199Z,101220.91
2022-12-06T04:07:31.956Z,101221.53
2022-12-06T04:10:04.550Z,101210.47
2022-12-06T04:12:51.918Z,101209.81
2022-12-06T04:15:20.126Z,101201.69
2022-12-06T04:18:05.167Z,101191.06
2022-12-06T04:20:52.651Z,101205.03
2022-12-06T04:23:20.240Z,101218.72
2022-12-06T04:25:47.192Z,101210.19
2022-12-06T04:28:32.495Z,101213.84
2022-12-06T04:31:22.089Z,101210.72
2022-12-06T04:34:08.557Z,101207.91
2022-12-06T04:36:54.998Z,101204.97
2022-12-06T04:39:21.890Z,101198.19
2022-12-06T04:42:07.824Z,101203.38
2022-12-06T04:44:34.550Z,101194.50
2022-12-06T04:47:01.532Z,101197.91
2022-12-06T04:49:29.885Z,101189.34
2022-12-06T04:51:56.609Z,101206.38
2022-12-06T04:54:24.547Z,101202.06
2022-12-06T04:56:51.466Z,101209.81
2022-12-06T04:59:18.336Z,101219.88
2022-12-06T05:01:45.028Z,101211.53
2022-12-06T05:04:12.949Z,101221.28
2022-12-06T05:06:39.740Z,101213.88
2022-12-06T05:09:06.492Z,101219.06
2022-12-06T05:11:33.425Z,101210.78
2022-12-06T05:14:01.140Z,101220.72
2022-12-06T05:16:28.210Z,101216.19
2022-12-06T05:18:55.148Z,101220.28
2022-12-06T05:21:23.911Z,101217.84
2022-12-06T05:23:54.271Z,101222.69
2022-12-06T05:26:24.146Z,101216.88
2022-12-06T05:28:51.040Z,101220.50
2022-12-06T05:31:19.142Z,101220.88
2022-12-06T05:33:46.827Z,101214.25
2022-12-06T05:36:16.981Z,101213.44
2022-12-06T05:38:47.118Z,101210.41
2022-12-06T05:41:18.970Z,101218.63
2022-12-06T05:43:45.652Z,101220.84
2022-12-06T05:46:12.405Z,101226.44
2022-12-06T05:48:39.116Z,101227.06
2022-12-06T05:51:06.072Z,101227.22
2022-12-06T05:53:32.774Z,101233.06
2022-12-06T05:56:07.503Z,101240.25
2022-12-06T05:58:34.543Z,101246.13
2022-12-06T06:01:01.218Z,101235.84
2022-12-06T06:03:27.988Z,101245.31
2022-12-06T06:05:58.534Z,101240.72
2022-12-06T06:08:25.573Z,101245.25
2022-12-06T06:10:52.243Z,101253.00
2022-12-06T06:13:19.024Z,101255.34
2022-12-06T06:15:45.708Z,101252.25
2022-12-06T06:18:12.460Z,101258.44
2022-12-06T06:20:39.123Z,101257.56
2022-12-06T06:23:05.914Z,101264.22
2022-12-06T06:25:32.592Z,101256.41
2022-12-06T06:27:59.316Z,101264.06
2022-12-06T06:30:26.134Z,101259.75
2022-12-06T06:32:52.923Z,101256.69
2022-12-06T06:35:19.590Z,101263.69
2022-12-06T06:37:46.298Z,101263.16
2022-12-06T06:40:12.985Z,101255.50
2022-12-06T06:42:39.716Z,101259.31
2022-12-06T06:45:06.899Z,101253.53
2022-12-06T06:47:34.231Z,101259.00
2022-12-06T06:50:01.225Z,101259.59
2022-12-06T06:52:28.275Z,101252.41
2022-12-06T06:54:55.233Z,101258.22
2022-12-06T06:57:21.979Z,101256.78
2022-12-06T06:59:48.606Z,101260.03
2022-12-06T07:02:17.401Z,101257.47
2022-12-06T07:04:45.057Z,101261.56
2022-12-06T07:07:17.890Z,101270.56
2022-12-06T07:09:47.451Z,101268.47
2022-12-06T07:12:14.586Z,101261.25
2022-12-06T07:14:41.347Z,101264.53
2022-12-06T07:17:08.211Z,101271.25
2022-12-06T07:19:35.000Z,101258.75
2022-12-06T07:22:01.680Z,101261.88
2022-12-06T07:24:28.386Z,101258.75
2022-12-06T07:26:56.839Z,101252.00
2022-12-06T07:29:23.525Z,101257.84
2022-12-06T07:31:50.141Z,101256.84
2022-12-06T07:34:16.909Z,101261.72
2022-12-06T07:36:43.558Z,101260.03
2022-12-06T07:39:14.498Z,101256.91
2022-12-06T07:42:00.250Z,101252.53
2022-12-06T07:45:02.956Z,101254.78
2022-12-06T07:47:38.069Z,101257.00
2022-12-06T07:50:06.682Z,101260.56
2022-12-06T07:52:34.874Z,101265.66
2022-12-06T07:55:02.371Z,101269.59
2022-12-06T07:57:29.270Z,101265.88
2022-12-06T07:59:55.962Z,101270.81
2022-12-06T08:02:26.622Z,101257.00
2022-12-06T08:04:54.751Z,101262.22
2022-12-06T08:07:22.501Z,101266.84
2022-12-06T08:09:51.125Z,101264.38
2022-12-06T08:12:17.764Z,101257.91
2022-12-06T08:14:44.508Z,101257.81
2022-12-06T08:17:11.257Z,101263.91
2022-12-06T08:19:37.983Z,101259.66
2022-12-06T08:22:04.815Z,101267.28
2022-12-06T08:24:31.475Z,101268.28
2022-12-06T08:26:59.327Z,101266.91
2022-12-06T08:29:26.123Z,101263.97
2022-12-06T08:31:52.879Z,101267.69
2022-12-06T08:34:19.574Z,101270.91
2022-12-06T08:36:46.108Z,101269.88
2022-12-06T08:39:14.553Z,101275.34
2022-12-06T08:41:57.941Z,101273.00
2022-12-06T08:44:28.920Z,101271.16
2022-12-06T08:46:56.858Z,101276.34
2022-12-06T08:49:25.200Z,101274.75
2022-12-06T08:51:52.440Z,101277.72
2022-12-06T08:54:22.134Z,101279.94
2022-12-06T08:56:50.073Z,101276.13
2022-12-06T08:59:17.486Z,101281.56
2022-12-06T09:01:45.524Z,101281.28
2022-12-06T09:04:12.497Z,101279.47
2022-12-06T09:06:41.560Z,101286.97
2022-12-06T09:09:09.571Z,101279.53
2022-12-06T09:11:36.522Z,101285.50
2022-12-06T09:14:03.251Z,101290.66
2022-12-06T09:16:30.003Z,101285.50
2022-12-06T09:18:57.713Z,101291.50
2022-12-06T09:21:26.698Z,101295.94
2022-12-06T09:23:56.105Z,101305.59
2022-12-06T09:26:23.624Z,101303.94
2022-12-06T09:28:50.917Z,101306.25
2022-12-06T09:31:19.012Z,101310.75
2022-12-06T09:33:46.804Z,101313.06
2022-12-06T09:36:25.717Z,101312.88
2022-12-06T09:38:55.367Z,101317.03
2022-12-06T09:41:46.285Z,101322.72
2022-12-06T09:44:23.327Z,101322.19
2022-12-06T09:47:43.562Z,101327.69
2022-12-06T09:50:28.725Z,101329.81
2022-12-06T09:53:16.429Z,101340.44
2022-12-06T09:55:54.866Z,101339.94
2022-12-06T09:58:46.090Z,101340.06
2022-12-06T10:01:18.680Z,101331.66
2022-12-06T10:04:06.727Z,101335.69
2022-12-06T10:06:59.497Z,101335.69
2022-12-06T10:09:50.922Z,101331.63
2022-12-06T10:12:32.509Z,101340.25
2022-12-06T10:15:15.642Z,101336.56
2022-12-06T10:18:07.937Z,101333.25
2022-12-06T10:20:41.460Z,101325.88
2022-12-06T10:23:39.871Z,101326.06
2022-12-06T10:26:23.948Z,101333.44
2022-12-06T10:29:29.760Z,101333.56
2022-12-06T10:32:04.795Z,101326.41
2022-12-06T10:34:37.173Z,101325.59
2022-12-06T10:37:37.279Z,101317.28
2022-12-06T10:40:17.122Z,101322.63
2022-12-06T10:43:02.475Z,101314.16
2022-12-06T10:45:53.693Z,101314.34
2022-12-06T10:48:35.993Z,101304.84
2022-12-06T10:51:09.782Z,101301.88
2022-12-06T10:53:44.959Z,101297.75
2022-12-06T10:56:19.980Z,101296.63
2022-12-06T10:58:56.972Z,101282.75
2022-12-06T11:01:28.736Z,101288.16
2022-12-06T11:04:13.803Z,101285.19
2022-12-06T11:06:55.029Z,101281.97
2022-12-06T11:09:40.603Z,101280.41
2022-12-06T11:12:25.216Z,101283.97
2022-12-06T11:15:17.510Z,101282.19
2022-12-06T11:17:48.719Z,101270.69
2022-12-06T11:20:25.371Z,101262.53
2022-12-06T11:23:08.621Z,101255.41
2022-12-06T11:25:44.240Z,101253.44
2022-12-06T11:28:26.448Z,101244.41
2022-12-06T11:30:54.280Z,101243.00
2022-12-06T11:33:26.067Z,101234.69
2022-12-06T11:35:52.864Z,101233.44
2022-12-06T11:38:19.480Z,101232.53
2022-12-06T11:40:51.756Z,101226.56
2022-12-06T11:43:24.313Z,101227.66
2022-12-06T11:45:51.167Z,101230.72
2022-12-06T11:48:21.909Z,101231.72
2022-12-06T11:50:50.272Z,101228.28
2022-12-06T11:53:33.466Z,101228.59
2022-12-06T11:56:22.586Z,101222.50
2022-12-06T11:59:01.769Z,101220.28
2022-12-06T12:01:46.803Z,101217.66
2022-12-06T12:04:59.210Z,101220.97
2022-12-06T12:07:35.261Z,101220.91
2022-12-06T12:10:23.922Z,101211.78
2022-12-06T12:13:09.555Z,101219.28
2022-12-06T12:15:37.204Z,101215.38
2022-12-06T12:18:05.570Z,101210.66
2022-12-06T12:20:37.707Z,101208.16
2022-12-06T12:23:17.949Z,101205.69
2022-12-06T12:26:17.336Z,101199.94
2022-12-06T12:28:46.696Z,101203.63
2022-12-06T12:31:26.587Z,101205.94
2022-12-06T12:34:25.512Z,101193.56
2022-12-06T12:37:02.911Z,101198.88
2022-12-06T12:39:39.370Z,101184.81
2022-12-06T12:42:29.558Z,101189.06
2022-12-06T12:45:00.925Z,101194.34
2022-12-06T12:47:27.917Z,101189.72
2022-12-06T12:50:20.196Z,101192.41
2022-12-06T12:52:47.088Z,101185.47
2022-12-06T12:55:15.718Z,101178.84
2022-12-06T12:57:46.207Z,101179.03
2022-12-06T13:00:18.358Z,101173.28
2022-12-06T13:02:50.064Z,101174.81
2022-12-06T13:05:38.350Z,101168.00
2022-12-06T13:08:19.289Z,101166.69
2022-12-06T13:10:58.437Z,101171.00
2022-12-06T13:13:32.427Z,101165.09
2022-12-06T13:16:04.646Z,101162.03
2022-12-06T13:18:47.474Z,101161.25
2022-12-06T13:21:37.973Z,101159.16
2022-12-06T13:24:10.383Z,101163.31
2022-12-06T13:26:41.591Z,101160.44
2022-12-06T13:29:28.407Z,101167.53
2022-12-06T13:31:58.047Z,101163.63
2022-12-06T13:34:40.054Z,101164.47
2022-12-06T13:37:29.787Z,101154.53
2022-12-06T13:39:57.109Z,101156.34
2022-12-06T13:42:45.337Z,101152.69
2022-12-06T13:45:40.383Z,101144.00
2022-12-06T13:48:25.344Z,101147.97
2022-12-06T13:50:54.959Z,101148.41
2022-12-06T13:53:24.426Z,101147.88
2022-12-06T13:55:59.114Z,101153.41
2022-12-06T13:58:26.226Z,101153.81
2022-12-06T14:00:54.687Z,101154.00
2022-12-06T14:03:21.487Z,101160.50
2022-12-06T14:08:22.444Z,101154.41
2022-12-06T14:10:49.256Z,101157.44
2022-12-06T14:13:21.136Z,101158.69
2022-12-06T14:15:50.712Z,101157.97
2022-12-06T14:18:20.181Z,101154.19
2022-12-06T14:20:49.605Z,101159.34
2022-12-06T14:23:40.003Z,101158.94
2022-12-06T14:26:21.748Z,101157.19
2022-12-06T14:28:49.942Z,101155.47
2022-12-06T14:31:22.048Z,101164.06
2022-12-06T14:33:49.418Z,101155.56
2022-12-06T14:36:30.361Z,101155.22
2022-12-06T14:38:58.676Z,101151.78
2022-12-06T14:41:57.153Z,101163.00
2022-12-06T14:44:29.862Z,101161.72
2022-12-06T14:46:57.861Z,101158.59
2022-12-06T14:49:45.325Z,101156.72
2022-12-06T14:52:30.347Z,101156.81
2022-12-06T14:55:12.166Z,101157.06
2022-12-06T14:57:46.285Z,101160.38
2022-12-06T15:00:26.262Z,101169.38
2022-12-06T15:03:23.458Z,101180.81
2022-12-06T15:06:08.189Z,101169.75
2022-12-06T15:08:36.499Z,101170.22
2022-12-06T15:11:40.399Z,101173.75
2022-12-06T15:14:39.343Z,101178.91
2022-12-06T15:17:18.619Z,101171.88
2022-12-06T15:19:48.334Z,101172.34
2022-12-06T15:22:24.946Z,101171.25
2022-12-06T15:24:55.396Z,101170.88
2022-12-06T15:27:23.331Z,101172.47
2022-12-06T15:29:50.268Z,101178.00
2022-12-06T15:32:19.238Z,101169.41
2022-12-06T15:34:46.519Z,101167.69
2022-12-06T15:37:38.135Z,101176.25
2022-12-06T15:40:02.183Z,101172.78
2022-12-06T15:42:28.936Z,101172.78
2022-12-06T15:44:55.563Z,101178.94
2022-12-06T15:47:22.180Z,101183.06
2022-12-06T15:49:51.609Z,101181.59
2022-12-06T15:52:22.974Z,101180.97
2022-12-06T15:54:49.674Z,101179.94
2022-12-06T15:57:16.309Z,101188.34
2022-12-06T15:59:42.924Z,101189.53
2022-12-06T16:02:15.448Z,101193.06
2022-12-06T16:04:43.127Z,101194.06
2022-12-06T16:07:10.654Z,101193.25
2022-12-06T16:09:37.742Z,101195.28
2022-12-06T16:12:04.808Z,101201.19
2022-12-06T16:14:31.423Z,101202.00
2022-12-06T16:16:58.014Z,101198.69
2022-12-06T16:19:24.676Z,101206.91
2022-12-06T16:21:58.020Z,101209.75
2022-12-06T16:24:24.694Z,101215.09
2022-12-06T16:26:51.416Z,101216.31
2022-12-06T16:29:20.932Z,101219.13
2022-12-06T16:31:47.964Z,101207.16
2022-12-06T16:34:15.491Z,101212.50
2022-12-06T16:37:02.315Z,101213.16
2022-12-06T16:39:30.345Z,101209.84
2022-12-06T16:41:57.339Z,101216.03
2022-12-06T16:44:24.070Z,101214.38
2022-12-06T16:46:51.954Z,101218.69
2022-12-06T16:52:14.316Z,101222.75
2022-12-06T16:54:41.693Z,101209.59
2022-12-06T16:57:10.766Z,101210.59
2022-12-06T16:59:37.379Z,101210.78
2022-12-06T17:02:18.327Z,101203.16
2022-12-06T17:04:44.920Z,101206.00
2022-12-06T17:07:11.466Z,101202.69
2022-12-06T17:09:38.098Z,101206.34
2022-12-06T17:12:06.310Z,101201.75
2022-12-06T17:14:33.662Z,101196.75
2022-12-06T17:17:03.904Z,101211.75
2022-12-06T17:19:32.077Z,101206.41
2022-12-06T17:22:02.010Z,101201.06
2022-12-06T17:24:28.903Z,101204.78
2022-12-06T17:26:56.020Z,101211.75
2022-12-06T17:29:23.981Z,101217.28
2022-12-06T17:31:51.828Z,101214.59
2022-12-06T17:34:20.040Z,101218.94
2022-12-06T17:36:48.159Z,101217.94
2022-12-06T17:39:17.129Z,101221.44
2022-12-06T17:42:02.341Z,101221.28
2022-12-06T17:44:29.277Z,101223.94
2022-12-06T17:46:56.162Z,101229.09
2022-12-06T17:49:24.712Z,101220.09
2022-12-06T17:51:51.624Z,101220.09
2022-12-06T17:54:19.510Z,101221.09
2022-12-06T17:56:48.163Z,101227.28
2022-12-06T17:59:17.759Z,101222.13
2022-12-06T18:02:13.376Z,101228.47
2022-12-06T18:04:31.775Z,101232.94
2022-12-06T18:06:58.585Z,101239.97
2022-12-06T18:09:25.406Z,101237.31
2022-12-06T18:11:52.087Z,101242.78
2022-12-06T18:14:18.984Z,101243.81
2022-12-06T18:16:46.599Z,101245.66
2022-12-06T18:19:19.361Z,101247.66
2022-12-06T18:21:47.045Z,101241.69
2022-12-06T18:24:25.851Z,101243.88
2022-12-06T18:26:55.766Z,101246.75
2022-12-06T18:29:24.323Z,101245.94
2022-12-06T18:31:51.713Z,101248.59
2022-12-06T18:34:19.182Z,101246.09
2022-12-06T18:36:46.320Z,101242.50
2022-12-06T18:39:16.223Z,101247.00
2022-12-06T18:41:44.694Z,101250.22
2022-12-06T18:44:12.969Z,101251.41
2022-12-06T18:46:42.489Z,101251.22
2022-12-06T18:49:11.325Z,101249.38
2022-12-06T18:51:38.847Z,101253.34
2022-12-06T18:54:06.818Z,101254.03
2022-12-06T18:56:34.386Z,101253.66
2022-12-06T18:59:02.824Z,101251.63
2022-12-06T19:01:32.797Z,101253.84
2022-12-06T19:04:03.009Z,101252.38
2022-12-06T19:06:32.822Z,101264.22
2022-12-06T19:09:06.739Z,101259.41
2022-12-06T19:11:36.340Z,101263.28
2022-12-06T19:14:03.130Z,101263.44
2022-12-06T19:16:39.251Z,101262.13
2022-12-06T19:19:15.505Z,101254.13
2022-12-06T19:21:43.886Z,101252.00
2022-12-06T19:24:12.604Z,101258.31
2022-12-06T19:26:39.881Z,101255.84
2022-12-06T19:29:06.540Z,101249.88
2022-12-06T19:31:33.301Z,101259.06
2022-12-06T19:34:00.162Z,101251.22
2022-12-06T19:36:28.906Z,101258.56
2022-12-06T19:39:05.987Z,101253.59
2022-12-06T19:41:53.410Z,101260.09
2022-12-06T19:44:20.043Z,101248.81
2022-12-06T19:46:48.209Z,101257.25
2022-12-06T19:49:17.580Z,101248.59
2022-12-06T19:51:46.449Z,101251.56
2022-12-06T19:54:23.113Z,101256.91
2022-12-06T19:56:51.165Z,101250.88
2022-12-06T19:59:17.752Z,101251.06
2022-12-06T20:01:45.965Z,101258.06
2022-12-06T20:04:22.601Z,101253.78
2022-12-06T20:06:50.657Z,101255.28
2022-12-06T20:09:18.871Z,101249.94
2022-12-06T20:12:01.700Z,101254.91
2022-12-06T20:14:32.461Z,101258.34
2022-12-06T20:16:59.156Z,101259.16
2022-12-06T20:19:25.899Z,101259.84
2022-12-06T20:21:52.598Z,101263.34
2022-12-06T20:24:21.266Z,101263.09
2022-12-06T20:26:54.461Z,101264.91
2022-12-06T20:29:22.064Z,101257.44
2022-12-06T20:31:51.508Z,101259.31
2022-12-06T20:34:19.082Z,101256.94
2022-12-06T20:36:46.001Z,101261.63
2022-12-06T20:39:24.777Z,101264.94
2022-12-06T20:41:51.557Z,101263.13
2022-12-06T20:44:18.794Z,101267.31
2022-12-06T20:46:45.805Z,101270.63
2022-12-06T20:49:12.996Z,101277.47
2022-12-06T20:51:40.254Z,101274.78
2022-12-06T20:54:07.938Z,101268.09
2022-12-06T20:56:37.487Z,101267.78
2022-12-06T20:59:05.957Z,101269.31
2022-12-06T21:01:36.037Z,101265.81
2022-12-06T21:04:02.919Z,101265.47
2022-12-06T21:06:29.511Z,101262.47
2022-12-06T21:08:56.116Z,101262.19
2022-12-06T21:11:24.982Z,101263.00
2022-12-06T21:13:56.352Z,101256.97
2022-12-06T21:16:29.095Z,101263.50
2022-12-06T21:18:56.846Z,101262.03
2022-12-06T21:21:29.083Z,101260.88
2022-12-06T21:23:59.388Z,101266.84
2022-12-06T21:26:26.054Z,101268.34
2022-12-06T21:28:53.373Z,101269.03
2022-12-06T21:31:20.290Z,101272.00
2022-12-06T21:33:46.936Z,101275.00
2022-12-06T21:36:13.616Z,101277.19
2022-12-06T21:38:40.188Z,101276.19
2022-12-06T21:41:12.751Z,101274.03
2022-12-06T21:43:40.511Z,101272.00
2022-12-06T21:46:10.562Z,101275.84
2022-12-06T21:48:37.298Z,101272.34
2022-12-06T21:51:06.621Z,101274.38
2022-12-06T21:53:34.082Z,101274.19
2022-12-06T21:56:06.459Z,101278.00
2022-12-06T21:58:33.111Z,101279.81
2022-12-06T22:01:14.444Z,101276.69
2022-12-06T22:03:41.243Z,101277.34
2022-12-06T22:06:10.148Z,101276.88
2022-12-06T22:08:38.035Z,101275.03
2022-12-06T22:11:10.173Z,101276.69
2022-12-06T22:13:36.947Z,101273.53
2022-12-06T22:16:06.016Z,101275.34
2022-12-06T22:18:34.467Z,101272.69
2022-12-06T22:21:07.644Z,101272.53
2022-12-06T22:23:34.779Z,101275.34
2022-12-06T22:26:05.893Z,101274.69
2022-12-06T22:28:32.851Z,101274.03
2022-12-06T22:31:14.564Z,101277.03
2022-12-06T22:33:41.982Z,101284.31
2022-12-06T22:39:04.289Z,101277.69
2022-12-06T22:41:32.088Z,101271.53
2022-12-06T22:44:01.253Z,101278.53
2022-12-06T22:46:29.429Z,101272.00
2022-12-06T22:48:57.670Z,101266.56
2022-12-06T22:51:26.852Z,101265.72
2022-12-06T22:54:05.392Z,101274.84
2022-12-06T22:56:35.971Z,101267.88
2022-12-06T22:59:02.885Z,101271.69
2022-12-06T23:01:32.934Z,101262.72
2022-12-06T23:04:02.258Z,101273.38
2022-12-06T23:06:29.118Z,101269.22
2022-12-06T23:08:55.902Z,101263.03
2022-12-06T23:11:25.794Z,101255.91
2022-12-06T23:13:53.702Z,101264.69
2022-12-06T23:16:23.149Z,101260.88
2022-12-06T23:18:50.267Z,101256.38
2022-12-06T23:21:23.286Z,101253.72
2022-12-06T23:23:55.340Z,101249.91
2022-12-06T23:26:29.591Z,101246.59
2022-12-06T23:28:56.445Z,101244.88
2022-12-06T23:31:25.641Z,101246.41
2022-12-06T23:33:59.588Z,101238.59
2022-12-06T23:36:29.455Z,101234.09
2022-12-06T23:38:56.087Z,101238.75
2022-12-06T23:41:28.316Z,101228.94
2022-12-06T23:43:56.228Z,101223.78
2022-12-06T23:46:25.916Z,101225.75
2022-12-06T23:48:53.822Z,101224.78
2022-12-06T23:51:23.183Z,101221.47
2022-12-06T23:53:56.896Z,101219.47
2022-12-06T23:56:24.795Z,101221.44
2022-12-06T23:58:52.146Z,101217.78
